Station info - map view · info · telemetry · weather · raw · status · beacons · messages · bulletins · browse · moving · my account
Callsign, ship name or locator: Clear       
It is possible to search using wildcards (*?) after a prefix. Example: OH*
APRS station IZ2UQC-9 - show graphs
Map loading...
Comment: OP. LORENZO Casto BS
Mic-E message: En route
Location: 45°19.60' N 9°08.12' E - locator JN45NH68FJ - show map - static map
2.9 miles North bearing 355° from Giussago, Provincia di Pavia, Lombardy, Italy [?]
3.4 miles West bearing 284° from Siziano, Provincia di Pavia, Lombardy, Italy
9.9 miles South bearing 195° from Milan, Province of Milan, Lombardy, Italy
72.7 miles East bearing 75° from Torino, Provincia di Torino, Piedmont, Italy
Last position: 2020-08-03 11:19:33 EDT (5h47m ago)
2020-08-03 17:19:33 CEST local time at Giussago, Italy [?]
Altitude: 312 ft
Course: 257°
Speed: 10 MPH
Device: Kenwood: TM-D710 (rig)
Last path: IZ2UQC-9>TU1YV0 via WIDE1-1,qAR,IR2UGD (good)
Positions stored: 245685
Packet rate: 33 seconds between packets on average during 1594 seconds.
Other SSIDs: IZ2UQC IZ2UQC-10 IZ2UQC-H0 IZ2UQC-H1 IZ2UQC-N
Stations near current position of IZ2UQC-9 - show more
callsign distance last heard - EDT      callsign distance last heard - EDT
IW2ODG-H01.7 miles 6°2020-07-26 13:32:27 ITOM2-12.4 miles 198°2020-07-31 19:46:31
IW2CTI-12.4 miles 198°2020-08-01 20:40:15 IW2CKM-H02.7 miles 284°2020-07-18 10:03:40
IK2EXH2.7 miles 144°2020-08-03 16:59:53 IW2EPA-N2.8 miles 293°2020-08-03 16:47:51
IW2EPA B2.8 miles 292°2020-08-03 16:52:40 IW2EPA-B2.8 miles 292°2020-08-03 16:52:50
IW2EPA-R42.8 miles 292°2020-08-03 16:32:12 IW2LGD-H03.8 miles 197°2020-08-03 16:33:07
IK2CMI-14.1 miles 30°2020-07-22 17:47:18 IW2HJO4.2 miles 10°2020-08-03 17:01:02
IK2HMU4.6 miles 66°2020-08-01 10:17:46 IZ2FER-34.8 miles 21°2020-08-03 17:01:02
IZ2FER-95.0 miles 21°2020-08-02 08:13:40 IU2MWK-H25.3 miles 72°2020-08-03 16:30:25
IW2DOY-96.1 miles 1°2020-07-26 11:56:39 I2AMH-116.1 miles 38°2020-07-13 18:02:40
IZ2TXQ6.6 miles 84°2020-07-04 18:05:26 IK2UCJ-H46.7 miles 260°2020-08-01 14:31:41
Stations which heard IZ2UQC-9 directly on radio –
callsign pkts first heard - EDT last heard longest (tx => rx) longest at - EDT
IR2UBX-11 12 2020-08-03 10:46:16 2020-08-03 11:19:04 JN45NG > JN45MQ 28.7 miles 352° 2020-08-03 11:07:47
IR2BZ 47 2020-08-03 09:14:01 2020-08-03 10:47:19 JN45OJ > JN45XO 38.8 miles 70° 2020-08-03 10:47:19
IR2BT 45 2020-08-02 14:43:40 2020-08-03 09:20:01 JN55DL > JN55FO 11.4 miles 35° 2020-08-03 09:20:01
IR2Y 24 2020-08-02 14:58:28 2020-08-03 09:20:39 JN55FO > JN55EK 13.7 miles 199° 2020-08-03 08:47:50
IW2EJH-11 1 2020-08-03 09:36:18 2020-08-03 09:36:18 JN55AN > JN55AT 16.6 miles 8° 2020-08-03 09:36:18
IR2S 8 2020-08-02 14:40:08 2020-08-02 14:45:16 JN55EQ > JN55DQ 6.3 miles 251° 2020-08-02 14:45:16
IR2CW 1 2020-08-03 11:01:27 2020-08-03 11:01:27 JN45NH > JN45NE 11.2 miles 169° 2020-08-03 11:01:27
IR2BW 16 2020-08-03 09:12:39 2020-08-03 09:36:17 JN55AN > JN55DN 12.2 miles 90° 2020-08-03 09:36:17
IR2DF 2 2020-08-03 09:37:59 2020-08-03 09:57:20 JN45TP > JN55AS 22.1 miles 67° 2020-08-03 09:57:20
IK2ILW 3 2020-08-03 09:47:46 2020-08-03 10:51:23 JN45NJ > JN45VV 46.5 miles 42° 2020-08-03 10:51:23
IK2CHZ-12 3 2020-08-03 09:49:47 2020-08-03 09:57:21 JN45UP > JN45UI 20.4 miles 188° 2020-08-03 09:49:47
IR2UFW 26 2020-08-03 10:48:23 2020-08-03 11:19:13 JN45OJ > JN45LI 9.5 miles 262° 2020-08-03 10:48:23
IR2BY 6 2020-08-03 09:34:47 2020-08-03 09:43:17 JN45WP > JN55BQ 11.1 miles 61° 2020-08-03 09:43:17
IR2UCL 13 2020-08-03 09:45:16 2020-08-03 09:56:46 JN45WP > JN45UP 8.0 miles 278° 2020-08-03 09:45:16
IU2GOH 2 2020-08-03 09:27:34 2020-08-03 09:28:48 JN55CM > JN55BL 4.6 miles 227° 2020-08-03 09:27:34
IR2UEZ 5 2020-08-03 10:46:13 2020-08-03 11:19:33 JN45OJ > JN45JP 27.8 miles 310° 2020-08-03 10:46:13
IQ3VO 10 2020-08-03 09:08:44 2020-08-03 11:10:01 JN45NG > JN55MQ 98.0 miles 73° 2020-08-03 11:07:11
IW9HHF-10 1 2020-08-03 10:45:38 2020-08-03 10:45:38 JN45OJ > JN45PM 10.4 miles 25° 2020-08-03 10:45:38
IR2UGD 17 2020-08-03 10:44:41 2020-08-03 11:19:03 JN45NG > JN45PJ 11.2 miles 46° 2020-08-03 11:07:21
IU2ITE 7 2020-08-03 10:49:54 2020-08-03 11:17:43 JN45NH > JN45MK 8.9 miles 333° 2020-08-03 11:16:57
IR2AL 8 2020-08-03 10:46:47 2020-08-03 11:18:53 JN45NG > JN45OL 13.7 miles 12° 2020-08-03 11:14:09
IR2BP 59 2020-08-03 08:51:14 2020-08-03 11:19:03 JN45NI > JN55DN 59.1 miles 75° 2020-08-03 11:01:15
IR2DD 20 2020-08-02 14:48:49 2020-08-03 09:10:08 JN55EQ > JN55GL 16.6 miles 156° 2020-08-03 08:35:20
IR2UGI 4 2020-08-03 10:49:34 2020-08-03 11:19:33 JN45NG > JN45KK 17.1 miles 314° 2020-08-03 11:07:31
I2HLY-1 1 2020-08-03 09:56:17 2020-08-03 09:56:17 JN45TP > JN45UV 17.4 miles 20° 2020-08-03 09:56:17

Only position packets which were originated by the station are shown here. The range statistics show some extra long hops, because some digipeaters do not correctly add themselves to the digipeater path. Please check the raw packets.
About this site
This page shows real-time information collected from the Automatic Position Reporting System Internet network (APRS-IS). APRS is used by amateur (ham) radio operators to transmit real-time position information, weather data, telemetry and messages over the radio. A vehicle equipped with a GPS receiver, a VHF transmitter or HF transceiver and a small computer device called a tracker transmits it's location, speed and course in a small data packet, which is then received by a nearby iGate receiving site which forwards the packet on the Internet. Systems connected to the Internet can send information on the APRS-IS without a radio transmitter, or collect and display information transmitted anywhere in the world.
User guide · FAQ · Blog · Discussion group · Linking to aprs.fi · AIS sites · Service status · Database statistics · Advertising on aprs.fi · Technical details · API · Change log · Planned changes · Credits and thanks · Terms Of Service · iPhone/iPad APRS